Time;durP1;ratioP1;P1;durP2;ratioP2;P2;SDS_P1;SDS_P2;PMS_P1;PMS_P2;Temp;Humidity;BMP_temperature;BMP_pressure;BME280_temperature;BME280_humidity;BME280_pressure;Samples;Min_cycle;Max_cycle;Signal;HPM_P1;HPM_P2
2023/08/17 00:02:00;;;;;;;6.20;4.82;;;;;;;;;;4397763;32;71833;-57
2023/08/17 00:04:47;;;;;;;6.18;4.50;;;;;;;;;;4397770;32;65900;-58
2023/08/17 00:07:34;;;;;;;5.40;4.32;;;;;;;;;;4397509;32;67547;-57
2023/08/17 00:10:20;;;;;;;6.35;4.97;;;;;;;;;;4397970;32;60081;-58
2023/08/17 00:13:07;;;;;;;;;;;;;;;;;;4399487;32;69681;-58
2023/08/17 00:15:53;;;;;;;8.88;4.60;;;;;;;;;;4400357;32;69401;-58
2023/08/17 00:18:39;;;;;;;7.12;4.75;;;;;;;;;;4400279;32;67537;-58
2023/08/17 00:21:26;;;;;;;5.85;4.22;;;;;;;;;;4387962;32;71565;-57
2023/08/17 00:24:15;;;;;;;6.07;4.37;;;;;;;;;;4398918;32;70956;-58
2023/08/17 00:27:06;;;;;;;6.85;4.70;;;;;;;;;;4399717;32;69264;-58
2023/08/17 00:29:52;;;;;;;5.65;4.32;;;;;;;;;;4400044;32;67646;-58
2023/08/17 00:32:39;;;;;;;7.57;4.40;;;;;;;;;;4399880;32;70758;-57
2023/08/17 00:35:26;;;;;;;8.60;4.82;;;;;;;;;;4398805;32;66101;-58
2023/08/17 00:38:19;;;;;;;6.43;5.18;;;;;;;;;;4399926;32;66963;-58
2023/08/17 00:41:05;;;;;;;7.25;4.60;;;;;;;;;;4400186;32;60276;-58
2023/08/17 00:43:53;;;;;;;6.00;4.55;;;;;;;;;;4398597;32;69551;-58
2023/08/17 00:46:39;;;;;;;7.07;5.00;;;;;;;;;;4397972;32;69026;-58
2023/08/17 00:49:26;;;;;;;7.12;5.12;;;;;;;;;;4398792;32;67674;-58
2023/08/17 00:52:13;;;;;;;6.57;4.75;;;;;;;;;;4399945;32;59983;-58
2023/08/17 00:55:03;;;;;;;7.25;4.93;;;;;;;;;;4399690;32;70739;-58
2023/08/17 00:57:51;;;;;;;7.68;5.18;;;;;;;;;;4398549;32;69482;-57
2023/08/17 01:00:40;;;;;;;6.35;4.80;;;;;;;;;;4387944;32;66862;-59
2023/08/17 01:03:33;;;;;;;7.50;5.03;;;;;;;;;;4398468;32;71754;-58
2023/08/17 01:06:22;;;;;;;6.57;4.95;;;;;;;;;;4399681;32;64906;-58
2023/08/17 01:09:09;;;;;;;7.57;4.82;;;;;;;;;;4397813;32;66240;-58
2023/08/17 01:12:14;;;;;;;6.50;4.65;;;;;;;;;;4398680;32;60518;-56
2023/08/17 01:15:15;;;;;;;10.25;4.87;;;;;;;;;;4398172;32;71696;-58
2023/08/17 01:18:09;;;;;;;7.62;5.30;;;;;;;;;;4398448;32;64985;-58
2023/08/17 01:20:59;;;;;;;6.55;4.90;;;;;;;;;;4387232;32;68512;-57
2023/08/17 01:23:50;;;;;;;7.10;5.35;;;;;;;;;;4398281;32;60302;-57
2023/08/17 01:26:39;;;;;;;8.85;6.15;;;;;;;;;;4397703;32;70347;-58
2023/08/17 01:29:36;;;;;;;9.60;5.78;;;;;;;;;;4399880;32;69529;-59
2023/08/17 01:32:32;;;;;;;7.60;5.47;;;;;;;;;;4401006;32;67783;-58
2023/08/17 01:35:26;;;;;;;7.93;5.40;;;;;;;;;;4401884;32;70736;-58
2023/08/17 01:38:30;;;;;;;7.80;4.97;;;;;;;;;;4403597;32;65406;-58
2023/08/17 01:41:33;;;;;;;9.10;5.87;;;;;;;;;;4399953;32;69588;-58
2023/08/17 01:44:27;;;;;;;8.48;6.25;;;;;;;;;;4397931;32;67746;-58
2023/08/17 01:47:26;;;;;;;7.37;5.93;;;;;;;;;;4398906;32;70789;-57
2023/08/17 01:50:28;;;;;;;;;;;;;;;;;;4399458;32;65990;-57
2023/08/17 01:53:40;;;;;;;8.00;6.00;;;;;;;;;;4399231;32;68180;-58
2023/08/17 01:56:29;;;;;;;9.35;6.25;;;;;;;;;;4399320;32;59311;-58
2023/08/17 01:59:18;;;;;;;7.87;5.55;;;;;;;;;;4397593;32;70175;-57
2023/08/17 02:02:17;;;;;;;7.87;5.82;;;;;;;;;;4398876;32;68389;-58
2023/08/17 02:05:04;;;;;;;11.30;5.75;;;;;;;;;;4397785;32;67228;-57
2023/08/17 02:08:02;;;;;;;8.67;5.80;;;;;;;;;;4399122;32;59308;-57
2023/08/17 02:10:53;;;;;;;9.50;6.30;;;;;;;;;;4398842;32;69508;-57
2023/08/17 02:13:48;;;;;;;8.77;6.30;;;;;;;;;;4398619;32;68244;-58
2023/08/17 02:16:43;;;;;;;8.85;6.20;;;;;;;;;;4398820;32;66659;-58
2023/08/17 02:19:38;;;;;;;8.77;6.40;;;;;;;;;;4398706;32;71803;-58
2023/08/17 02:22:28;;;;;;;9.98;6.95;;;;;;;;;;4398747;32;66242;-58
2023/08/17 02:25:19;;;;;;;11.05;6.80;;;;;;;;;;4398508;32;67865;-58
2023/08/17 02:28:11;;;;;;;9.85;6.72;;;;;;;;;;4397410;32;59356;-57
2023/08/17 02:31:02;;;;;;;10.18;6.85;;;;;;;;;;4397465;32;70439;-58
2023/08/17 02:33:58;;;;;;;11.52;6.87;;;;;;;;;;4397008;32;67187;-58
2023/08/17 02:36:55;;;;;;;9.27;6.85;;;;;;;;;;4398066;32;67102;-58
2023/08/17 02:39:47;;;;;;;10.10;6.93;;;;;;;;;;4398912;32;59103;-58
2023/08/17 02:42:46;;;;;;;10.02;6.43;;;;;;;;;;4398316;32;69531;-58
2023/08/17 02:45:38;;;;;;;10.25;6.78;;;;;;;;;;4398300;32;68361;-58
2023/08/17 02:48:43;;;;;;;9.60;6.75;;;;;;;;;;4397164;32;67296;-58
2023/08/17 02:51:40;;;;;;;10.25;6.90;;;;;;;;;;4397959;32;71698;-57
2023/08/17 02:54:26;;;;;;;10.23;6.90;;;;;;;;;;4386516;32;65866;-57
2023/08/17 02:57:18;;;;;;;8.20;6.47;;;;;;;;;;4398211;32;68476;-58
2023/08/17 03:00:09;;;;;;;9.60;7.12;;;;;;;;;;4396548;32;68111;-58
2023/08/17 03:02:55;;;;;;;11.10;7.43;;;;;;;;;;4398150;32;71821;-58
2023/08/17 03:05:48;;;;;;;9.55;6.97;;;;;;;;;;4396915;32;66559;-57
2023/08/17 03:08:37;;;;;;;11.35;7.57;;;;;;;;;;4386436;32;66858;-58
2023/08/17 03:11:31;;;;;;;10.98;7.03;;;;;;;;;;4398370;32;59056;-58
2023/08/17 03:14:18;;;;;;;8.10;6.07;;;;;;;;;;4397021;32;69721;-58
2023/08/17 03:17:06;;;;;;;;;;;;;;;;;;4385700;32;70178;-58
2023/08/17 03:20:05;;;;;;;8.30;6.47;;;;;;;;;;4396903;32;68169;-58
2023/08/17 03:22:54;;;;;;;10.70;6.90;;;;;;;;;;4398295;32;59267;-57
2023/08/17 03:25:43;;;;;;;9.13;6.47;;;;;;;;;;4385078;32;71718;-58
2023/08/17 03:28:32;;;;;;;9.65;6.87;;;;;;;;;;4396550;32;68728;-58
2023/08/17 03:31:22;;;;;;;10.20;6.85;;;;;;;;;;4396790;32;67830;-58
2023/08/17 03:34:14;;;;;;;8.98;7.07;;;;;;;;;;4396588;32;70653;-57
2023/08/17 03:37:00;;;;;;;9.27;6.82;;;;;;;;;;4396249;32;66936;-58
2023/08/17 03:39:48;;;;;;;8.98;7.05;;;;;;;;;;4396179;32;67407;-57
2023/08/17 03:42:35;;;;;;;10.90;7.03;;;;;;;;;;4398222;32;58879;-57
2023/08/17 03:45:21;;;;;;;;;;;;;;;;;;4397947;32;70600;-59
2023/08/17 03:48:12;;;;;;;9.95;7.37;;;;;;;;;;4400363;32;66448;-58
2023/08/17 03:51:06;;;;;;;11.43;7.03;;;;;;;;;;4400898;32;67961;-58
2023/08/17 03:53:57;;;;;;;8.80;7.53;;;;;;;;;;4400792;32;60054;-58
2023/08/17 03:56:46;;;;;;;7.95;6.37;;;;;;;;;;4399331;32;69481;-58
2023/08/17 03:59:36;;;;;;;9.00;6.97;;;;;;;;;;4400468;32;69315;-58
2023/08/17 04:02:33;;;;;;;8.48;6.57;;;;;;;;;;4400645;32;66388;-57
2023/08/17 04:05:23;;;;;;;9.65;7.15;;;;;;;;;;4400212;32;70685;-58
2023/08/17 04:08:12;;;;;;;10.27;6.50;;;;;;;;;;4399017;32;65904;-58
2023/08/17 04:10:59;;;;;;;8.57;7.12;;;;;;;;;;4400532;32;67221;-58
2023/08/17 04:13:48;;;;;;;9.07;6.40;;;;;;;;;;4388496;32;66353;-58
2023/08/17 04:16:34;;;;;;;9.40;6.75;;;;;;;;;;4398786;32;71549;-58
2023/08/17 04:19:24;;;;;;;10.02;7.55;;;;;;;;;;4400213;32;65013;-57
2023/08/17 04:22:11;;;;;;;8.90;6.85;;;;;;;;;;4399005;32;68349;-58
2023/08/17 04:25:02;;;;;;;9.05;7.00;;;;;;;;;;4399968;32;60130;-58
2023/08/17 04:27:49;;;;;;;9.13;6.95;;;;;;;;;;4400164;32;69665;-55
2023/08/17 04:30:37;;;;;;;10.18;7.50;;;;;;;;;;4376740;32;70053;-57
2023/08/17 04:33:27;;;;;;;9.48;7.37;;;;;;;;;;4398700;32;67013;-58
2023/08/17 04:36:17;;;;;;;8.63;6.32;;;;;;;;;;4400307;32;71656;-58
2023/08/17 04:39:04;;;;;;;7.37;6.40;;;;;;;;;;4399856;32;70525;-57
2023/08/17 04:41:55;;;;;;;8.23;6.68;;;;;;;;;;4399838;32;69191;-57
2023/08/17 04:44:48;;;;;;;8.15;6.65;;;;;;;;;;4399837;32;66762;-58
2023/08/17 04:47:38;;;;;;;7.68;5.68;;;;;;;;;;4399662;32;70774;-58
2023/08/17 04:50:25;;;;;;;8.48;6.55;;;;;;;;;;4398895;32;65339;-57
2023/08/17 04:53:16;;;;;;;12.10;7.78;;;;;;;;;;4398512;32;67171;-58
2023/08/17 04:56:04;;;;;;;8.23;6.12;;;;;;;;;;4399839;32;59992;-58
2023/08/17 04:58:53;;;;;;;11.23;6.45;;;;;;;;;;4397438;32;71124;-58
2023/08/17 05:01:40;;;;;;;6.75;5.50;;;;;;;;;;4399737;32;69304;-58
2023/08/17 05:04:26;;;;;;;8.90;5.32;;;;;;;;;;4399563;32;66814;-58
2023/08/17 05:07:17;;;;;;;6.25;5.15;;;;;;;;;;4400086;32;59910;-58
2023/08/17 05:12:47;;;;;;;9.48;6.05;;;;;;;;;;3854841;36;43477;-58
2023/08/17 05:15:34;;;;;;;8.23;6.20;;;;;;;;;;4426630;32;60441;-58
2023/08/17 05:18:22;;;;;;;8.35;6.80;;;;;;;;;;4426194;32;70220;-58
2023/08/17 05:21:09;;;;;;;9.35;6.20;;;;;;;;;;4426203;32;69441;-58
2023/08/17 05:23:56;;;;;;;8.65;6.30;;;;;;;;;;4403603;32;67856;-58
2023/08/17 05:26:43;;;;;;;8.48;5.80;;;;;;;;;;4426210;32;70623;-58
2023/08/17 05:29:32;;;;;;;6.70;5.50;;;;;;;;;;4403796;32;65011;-57
2023/08/17 05:32:19;;;;;;;8.10;5.78;;;;;;;;;;4426313;32;67495;-58
2023/08/17 05:35:07;;;;;;;8.68;5.55;;;;;;;;;;4414473;32;59288;-58
2023/08/17 05:37:54;;;;;;;10.50;6.95;;;;;;;;;;4413790;32;70626;-58
2023/08/17 05:40:42;;;;;;;8.65;5.70;;;;;;;;;;4426299;32;64704;-58
2023/08/17 05:43:30;;;;;;;6.82;5.00;;;;;;;;;;4426087;32;66476;-58
2023/08/17 05:46:16;;;;;;;;;;;;;;;;;;4426616;32;59981;-58
2023/08/17 05:49:03;;;;;;;6.50;4.87;;;;;;;;;;4414087;32;70064;-57
2023/08/17 05:51:50;;;;;;;8.52;5.82;;;;;;;;;;4413777;32;68305;-58
2023/08/17 05:54:37;;;;;;;9.52;6.07;;;;;;;;;;4425851;32;67424;-58
2023/08/17 05:57:23;;;;;;;7.28;5.30;;;;;;;;;;4410863;32;72228;-58
2023/08/17 06:00:12;;;;;;;10.05;6.12;;;;;;;;;;4426154;32;65556;-57
2023/08/17 06:03:02;;;;;;;7.50;6.05;;;;;;;;;;4413619;32;69388;-58
2023/08/17 06:05:53;;;;;;;7.85;5.57;;;;;;;;;;4392541;32;67852;-58
2023/08/17 06:08:39;;;;;;;8.55;5.82;;;;;;;;;;4425891;32;72238;-58
2023/08/17 06:11:26;;;;;;;10.73;5.47;;;;;;;;;;4414465;32;65922;-58
2023/08/17 06:14:13;;;;;;;7.53;5.40;;;;;;;;;;4426536;32;66318;-59
2023/08/17 06:17:02;;;;;;;7.87;4.87;;;;;;;;;;4425991;32;59530;-58
2023/08/17 06:19:49;;;;;;;7.55;5.75;;;;;;;;;;4425593;32;70572;-58
2023/08/17 06:22:36;;;;;;;12.98;5.90;;;;;;;;;;4421615;32;69305;-57
2023/08/17 06:25:22;;;;;;;;;;;;;;;;;;4400701;32;67115;-57
2023/08/17 06:28:09;;;;;;;9.47;5.37;;;;;;;;;;4403599;32;59570;-58
2023/08/17 06:30:56;;;;;;;8.27;5.53;;;;;;;;;;4415055;32;70946;-58
2023/08/17 06:33:43;;;;;;;5.47;4.22;;;;;;;;;;4414988;32;68462;-58
2023/08/17 06:36:32;;;;;;;7.30;4.50;;;;;;;;;;4389606;32;67012;-57
2023/08/17 06:39:21;;;;;;;6.50;4.45;;;;;;;;;;4403134;32;71755;-58
2023/08/17 06:42:07;;;;;;;;;;;;;;;;;;4403403;32;65939;-57
2023/08/17 06:44:54;;;;;;;11.73;5.70;;;;;;;;;;4403287;32;67068;-58
2023/08/17 06:47:41;;;;;;;;;;;;;;;;;;4392896;32;59819;-57
2023/08/17 06:50:28;;;;;;;;;;;;;;;;;;4415376;32;70035;-57
2023/08/17 06:53:15;;;;;;;7.53;4.80;;;;;;;;;;4415331;32;65876;-57
2023/08/17 06:56:01;;;;;;;8.73;5.18;;;;;;;;;;4399975;32;68261;-57
2023/08/17 06:58:48;;;;;;;6.25;4.53;;;;;;;;;;4403109;32;60060;-57
2023/08/17 07:01:35;;;;;;;6.57;4.80;;;;;;;;;;4414782;32;69604;-57
2023/08/17 07:04:21;;;;;;;8.98;5.55;;;;;;;;;;4378520;32;70113;-57
2023/08/17 07:07:08;;;;;;;5.85;4.32;;;;;;;;;;4414710;32;67485;-58
2023/08/17 07:09:54;;;;;;;10.15;5.20;;;;;;;;;;4414783;32;70945;-58
2023/08/17 07:12:41;;;;;;;6.93;4.32;;;;;;;;;;4414337;32;66463;-58
2023/08/17 07:15:28;;;;;;;9.45;5.30;;;;;;;;;;4400009;32;67818;-58
2023/08/17 07:18:14;;;;;;;8.55;5.50;;;;;;;;;;4414749;32;67413;-59
2023/08/17 07:21:01;;;;;;;10.18;5.45;;;;;;;;;;4402360;32;71180;-57
2023/08/17 07:23:48;;;;;;;8.32;5.50;;;;;;;;;;4414563;32;66142;-58
2023/08/17 07:26:34;;;;;;;7.80;6.53;;;;;;;;;;4414756;32;67580;-58
2023/08/17 07:29:21;;;;;;;6.80;4.50;;;;;;;;;;4403154;32;59964;-57
2023/08/17 07:32:07;;;;;;;8.00;5.25;;;;;;;;;;4401189;32;69304;-58
2023/08/17 07:34:54;;;;;;;6.20;5.07;;;;;;;;;;4414293;32;69725;-58
2023/08/17 07:37:40;;;;;;;6.35;4.70;;;;;;;;;;4405841;32;68191;-58
2023/08/17 07:40:27;;;;;;;7.90;4.68;;;;;;;;;;4419009;32;59887;-59
2023/08/17 07:43:13;;;;;;;;;;;;;;;;;;4419344;32;70905;-58
2023/08/17 07:46:00;;;;;;;10.70;4.55;;;;;;;;;;4416638;32;69244;-58
2023/08/17 07:48:46;;;;;;;7.62;4.28;;;;;;;;;;4414308;32;66553;-57
2023/08/17 07:51:34;;;;;;;7.05;4.55;;;;;;;;;;4401825;32;71152;-59
2023/08/17 07:54:20;;;;;;;9.50;5.10;;;;;;;;;;4402329;32;66405;-59
2023/08/17 07:57:06;;;;;;;11.63;5.07;;;;;;;;;;4414124;32;67478;-58
2023/08/17 07:59:53;;;;;;;;;;;;;;;;;;4389118;32;59622;-58
2023/08/17 08:02:40;;;;;;;7.03;4.50;;;;;;;;;;4414290;32;69931;-58
2023/08/17 08:05:27;;;;;;;6.10;4.32;;;;;;;;;;4414099;32;66379;-58
2023/08/17 08:08:14;;;;;;;7.22;4.10;;;;;;;;;;4388737;32;68609;-58
2023/08/17 08:11:01;;;;;;;7.80;4.40;;;;;;;;;;4414186;32;59102;-57
2023/08/17 08:13:47;;;;;;;4.22;3.33;;;;;;;;;;4413573;32;70581;-57
2023/08/17 08:16:34;;;;;;;8.18;4.20;;;;;;;;;;4390936;32;69399;-57
2023/08/17 08:19:23;;;;;;;4.70;3.70;;;;;;;;;;4413982;32;67586;-58
2023/08/17 08:22:09;;;;;;;7.57;3.50;;;;;;;;;;4391122;32;71445;-57
2023/08/17 08:24:55;;;;;;;6.20;3.80;;;;;;;;;;4413876;32;64925;-58
2023/08/17 08:27:42;;;;;;;6.03;3.75;;;;;;;;;;4414025;32;67912;-57
2023/08/17 08:30:29;;;;;;;7.82;3.53;;;;;;;;;;4413977;32;67378;-58
2023/08/17 08:33:15;;;;;;;7.97;4.15;;;;;;;;;;4413876;32;70885;-57
2023/08/17 08:36:02;;;;;;;;;;;;;;;;;;4414164;32;66390;-58
2023/08/17 08:38:48;;;;;;;6.62;3.50;;;;;;;;;;4413997;32;67585;-57
2023/08/17 08:41:34;;;;;;;;;;;;;;;;;;4414338;32;59126;-58
2023/08/17 08:44:21;;;;;;;5.18;3.70;;;;;;;;;;4391137;32;70133;-59
2023/08/17 08:47:08;;;;;;;6.53;3.60;;;;;;;;;;4388420;32;69939;-57
2023/08/17 08:50:02;;;;;;;4.60;3.65;;;;;;;;;;4414631;32;66518;-58
2023/08/17 08:53:00;;;;;;;4.72;3.25;;;;;;;;;;4401444;32;70727;-58
2023/08/17 08:55:57;;;;;;;5.75;3.58;;;;;;;;;;4390519;32;70684;-58
2023/08/17 08:58:45;;;;;;;7.18;4.30;;;;;;;;;;4401180;32;68439;-58
2023/08/17 09:01:32;;;;;;;7.45;3.45;;;;;;;;;;4413339;32;66756;-58
2023/08/17 09:04:21;;;;;;;5.65;3.78;;;;;;;;;;4401076;32;71662;-57
2023/08/17 09:07:08;;;;;;;5.70;3.83;;;;;;;;;;4413592;32;65925;-58
2023/08/17 09:09:56;;;;;;;5.75;3.72;;;;;;;;;;4413286;32;67579;-58
2023/08/17 09:12:45;;;;;;;7.85;3.58;;;;;;;;;;4413226;32;59847;-58
2023/08/17 09:15:31;;;;;;;7.18;4.07;;;;;;;;;;4413118;32;69430;-57
2023/08/17 09:18:19;;;;;;;7.25;4.22;;;;;;;;;;4398366;32;69479;-58
2023/08/17 09:21:05;;;;;;;8.68;4.18;;;;;;;;;;4413331;32;67568;-57
2023/08/17 09:23:56;;;;;;;5.53;4.55;;;;;;;;;;4401353;32;59098;-58
2023/08/17 09:26:42;;;;;;;5.28;3.97;;;;;;;;;;4400852;32;71213;-58
2023/08/17 09:29:36;;;;;;;6.55;4.68;;;;;;;;;;4401258;32;68026;-57
2023/08/17 09:32:23;;;;;;;6.00;3.70;;;;;;;;;;4413112;32;67702;-58
2023/08/17 09:35:10;;;;;;;5.12;3.95;;;;;;;;;;4400845;32;70944;-59
2023/08/17 09:37:56;;;;;;;6.87;3.70;;;;;;;;;;4413175;32;66044;-58
2023/08/17 09:40:43;;;;;;;4.57;3.53;;;;;;;;;;4387552;32;68281;-58
2023/08/17 09:43:33;;;;;;;8.35;3.50;;;;;;;;;;4401132;32;59110;-59
2023/08/17 09:46:19;;;;;;;5.85;3.72;;;;;;;;;;4412680;32;71835;-60
2023/08/17 09:49:09;;;;;;;4.97;3.58;;;;;;;;;;4379228;32;64554;-58
2023/08/17 09:51:57;;;;;;;6.07;4.00;;;;;;;;;;4412503;32;68500;-58
2023/08/17 09:54:45;;;;;;;4.53;3.40;;;;;;;;;;4387662;32;59756;-58
2023/08/17 09:57:33;;;;;;;7.32;3.80;;;;;;;;;;4413122;32;70564;-58
2023/08/17 10:00:23;;;;;;;8.07;3.72;;;;;;;;;;4389883;32;69070;-56
2023/08/17 10:03:11;;;;;;;5.65;3.30;;;;;;;;;;4403411;32;67148;-58
2023/08/17 10:06:09;;;;;;;6.60;3.60;;;;;;;;;;4403567;32;70643;-57
2023/08/17 10:09:00;;;;;;;5.90;3.92;;;;;;;;;;4403282;32;70619;-57
2023/08/17 10:11:49;;;;;;;7.20;4.20;;;;;;;;;;4403046;32;69603;-56
2023/08/17 10:14:41;;;;;;;5.10;3.67;;;;;;;;;;4389873;32;68414;-58
2023/08/17 10:17:33;;;;;;;5.60;3.70;;;;;;;;;;4403091;32;71572;-58
2023/08/17 10:20:23;;;;;;;7.40;3.97;;;;;;;;;;4403642;32;66062;-57
2023/08/17 10:23:19;;;;;;;7.30;4.00;;;;;;;;;;4403244;32;66892;-58
2023/08/17 10:26:08;;;;;;;5.87;3.75;;;;;;;;;;4415467;32;60382;-58
2023/08/17 10:28:58;;;;;;;7.65;4.00;;;;;;;;;;4392296;32;70148;-57
2023/08/17 10:31:46;;;;;;;7.40;3.72;;;;;;;;;;4403227;32;68607;-57
2023/08/17 10:34:33;;;;;;;6.18;3.80;;;;;;;;;;4400221;32;68383;-58
2023/08/17 10:37:26;;;;;;;9.60;4.30;;;;;;;;;;4403200;32;60658;-58
2023/08/17 10:40:12;;;;;;;5.70;4.07;;;;;;;;;;4403114;32;70226;-58
2023/08/17 10:43:04;;;;;;;5.03;3.90;;;;;;;;;;4403636;32;68504;-59
2023/08/17 10:45:50;;;;;;;7.20;3.87;;;;;;;;;;4414794;32;67858;-58
2023/08/17 10:48:37;;;;;;;6.47;3.78;;;;;;;;;;4414886;32;70768;-59
2023/08/17 10:51:26;;;;;;;;;;;;;;;;;;4415099;32;66176;-58
2023/08/17 10:54:14;;;;;;;7.50;4.00;;;;;;;;;;4415102;32;68145;-58
2023/08/17 10:57:28;;;;;;;5.57;3.78;;;;;;;;;;4414882;32;60371;-58
2023/08/17 11:00:21;;;;;;;6.95;4.00;;;;;;;;;;4388909;32;72601;-58
2023/08/17 11:03:33;;;;;;;4.85;3.50;;;;;;;;;;4414597;32;65654;-58
2023/08/17 11:06:19;;;;;;;5.20;4.28;;;;;;;;;;4414685;32;67920;-58
2023/08/17 11:09:09;;;;;;;5.90;4.20;;;;;;;;;;4402566;32;59236;-58
2023/08/17 11:11:56;;;;;;;5.30;3.85;;;;;;;;;;4378158;32;69637;-57
2023/08/17 11:14:45;;;;;;;5.47;4.10;;;;;;;;;;4402498;32;68139;-57
2023/08/17 11:17:37;;;;;;;5.35;4.03;;;;;;;;;;4414413;32;66685;-58
2023/08/17 11:20:24;;;;;;;7.65;3.72;;;;;;;;;;4402162;32;71685;-58
2023/08/17 11:23:12;;;;;;;7.05;3.80;;;;;;;;;;4414717;32;64903;-57
2023/08/17 11:26:00;;;;;;;6.70;3.87;;;;;;;;;;4414580;32;69288;-58
2023/08/17 11:28:50;;;;;;;4.45;3.60;;;;;;;;;;4414517;32;67651;-58
2023/08/17 11:31:41;;;;;;;5.95;3.65;;;;;;;;;;4392134;32;70667;-59
2023/08/17 11:34:28;;;;;;;5.45;4.07;;;;;;;;;;4402351;32;65018;-58
2023/08/17 11:37:20;;;;;;;7.68;3.75;;;;;;;;;;4391633;32;67906;-57
2023/08/17 11:40:09;;;;;;;6.20;4.07;;;;;;;;;;4402440;32;59014;-58
2023/08/17 11:42:59;;;;;;;7.85;4.35;;;;;;;;;;4413840;32;69629;-58
2023/08/17 11:45:46;;;;;;;6.75;4.45;;;;;;;;;;4414200;32;69361;-58
2023/08/17 11:48:34;;;;;;;6.03;4.75;;;;;;;;;;4414078;32;66679;-58
2023/08/17 11:51:33;;;;;;;5.53;4.47;;;;;;;;;;4402237;32;60220;-58
2023/08/17 11:54:21;;;;;;;6.87;4.72;;;;;;;;;;4413875;32;70688;-58
2023/08/17 11:57:08;;;;;;;7.20;5.07;;;;;;;;;;4401974;32;69256;-59
2023/08/17 11:59:56;;;;;;;7.85;5.10;;;;;;;;;;4413994;32;67998;-58
2023/08/17 12:02:43;;;;;;;7.68;4.70;;;;;;;;;;4388343;32;72402;-58
2023/08/17 12:05:32;;;;;;;6.57;4.22;;;;;;;;;;4413851;32;65903;-59
2023/08/17 12:08:18;;;;;;;5.22;4.00;;;;;;;;;;4413978;32;67829;-58
2023/08/17 12:11:05;;;;;;;5.85;4.28;;;;;;;;;;4414173;32;59972;-59
2023/08/17 12:13:54;;;;;;;5.78;4.32;;;;;;;;;;4401536;32;70515;-57
2023/08/17 12:16:48;;;;;;;6.10;4.85;;;;;;;;;;4401992;32;66152;-58
2023/08/17 12:19:35;;;;;;;7.32;4.70;;;;;;;;;;4401719;32;67597;-58
2023/08/17 12:22:27;;;;;;;6.70;4.30;;;;;;;;;;4414044;32;59209;-58
2023/08/17 12:25:14;;;;;;;5.70;3.85;;;;;;;;;;4401441;32;69548;-58
2023/08/17 12:28:01;;;;;;;6.10;3.90;;;;;;;;;;4398749;32;69696;-58
2023/08/17 12:31:01;;;;;;;5.07;3.80;;;;;;;;;;4398866;32;68347;-59
2023/08/17 12:33:48;;;;;;;6.15;4.00;;;;;;;;;;4401395;32;71790;-58
2023/08/17 12:36:37;;;;;;;6.10;4.28;;;;;;;;;;4413685;32;66234;-58
2023/08/17 12:39:24;;;;;;;5.37;4.28;;;;;;;;;;4401460;32;68594;-57
2023/08/17 12:42:11;;;;;;;5.30;3.95;;;;;;;;;;4401246;32;67848;-58
2023/08/17 12:44:57;;;;;;;6.78;3.90;;;;;;;;;;4398424;32;70235;-58
2023/08/17 12:47:44;;;;;;;5.57;3.92;;;;;;;;;;4401338;32;65684;-58
2023/08/17 12:50:30;;;;;;;6.05;4.15;;;;;;;;;;4413504;32;67007;-59
2023/08/17 12:53:17;;;;;;;;;;;;;;;;;;4413744;32;59335;-58
2023/08/17 12:56:03;;;;;;;5.90;3.60;;;;;;;;;;4413454;32;68773;-58
2023/08/17 12:58:50;;;;;;;6.25;3.45;;;;;;;;;;4413226;32;69265;-58
2023/08/17 13:01:38;;;;;;;6.40;3.65;;;;;;;;;;4413093;32;67373;-57
2023/08/17 13:04:27;;;;;;;5.32;3.58;;;;;;;;;;4413446;32;59809;-57
2023/08/17 13:07:15;;;;;;;6.00;4.00;;;;;;;;;;4398411;32;71731;-58
2023/08/17 13:10:07;;;;;;;5.75;4.62;;;;;;;;;;4413078;32;69433;-58
2023/08/17 13:12:56;;;;;;;6.75;4.12;;;;;;;;;;4412978;32;66731;-58
2023/08/17 13:15:42;;;;;;;5.97;4.62;;;;;;;;;;4413159;32;70587;-58
2023/08/17 13:18:32;;;;;;;5.82;3.60;;;;;;;;;;4413199;32;65947;-58
2023/08/17 13:21:21;;;;;;;7.97;3.78;;;;;;;;;;4413137;32;66992;-58
2023/08/17 13:24:08;;;;;;;4.85;3.40;;;;;;;;;;4413362;32;60372;-58
2023/08/17 13:26:57;;;;;;;4.82;3.35;;;;;;;;;;4400878;32;69693;-58
2023/08/17 13:29:46;;;;;;;5.70;3.60;;;;;;;;;;4401720;32;65013;-58
2023/08/17 13:32:36;;;;;;;5.12;3.47;;;;;;;;;;4413542;32;66855;-59
2023/08/17 13:35:31;;;;;;;6.53;4.00;;;;;;;;;;4383612;32;59077;-58
2023/08/17 13:38:18;;;;;;;10.15;4.05;;;;;;;;;;4415822;32;70416;-58
2023/08/17 13:41:05;;;;;;;4.37;3.25;;;;;;;;;;4404976;32;69594;-58
2023/08/17 13:43:53;;;;;;;6.60;3.80;;;;;;;;;;4417369;32;68208;-59
2023/08/17 13:46:49;;;;;;;3.85;3.30;;;;;;;;;;4406226;32;71917;-59
2023/08/17 13:49:38;;;;;;;4.93;3.40;;;;;;;;;;4416191;32;65956;-58
2023/08/17 13:52:27;;;;;;;4.30;3.12;;;;;;;;;;4415603;32;67746;-59
2023/08/17 13:55:13;;;;;;;;;;;;;;;;;;4403862;32;66754;-58
2023/08/17 13:58:00;;;;;;;4.50;2.80;;;;;;;;;;4403536;32;71892;-59
2023/08/17 14:00:50;;;;;;;3.87;3.00;;;;;;;;;;4415596;32;65736;-58
2023/08/17 14:03:38;;;;;;;7.68;3.35;;;;;;;;;;4392719;32;67428;-58
2023/08/17 14:06:24;;;;;;;5.65;3.42;;;;;;;;;;4415836;32;59110;-58
2023/08/17 14:09:13;;;;;;;6.10;3.60;;;;;;;;;;4403397;32;70620;-58
2023/08/17 14:12:00;;;;;;;4.32;3.30;;;;;;;;;;4415069;32;69239;-59
2023/08/17 14:14:52;;;;;;;5.15;3.10;;;;;;;;;;4389882;32;67647;-58
2023/08/17 14:17:47;;;;;;;4.45;3.53;;;;;;;;;;4415335;32;71758;-58
2023/08/17 14:20:34;;;;;;;6.25;4.25;;;;;;;;;;4415006;32;70519;-58
2023/08/17 14:23:24;;;;;;;7.68;4.00;;;;;;;;;;4403716;32;69301;-58
2023/08/17 14:26:11;;;;;;;7.40;4.30;;;;;;;;;;4415116;32;67382;-58
2023/08/17 14:28:58;;;;;;;6.65;4.30;;;;;;;;;;4414840;32;70823;-58
2023/08/17 14:31:47;;;;;;;5.50;3.95;;;;;;;;;;4415314;32;65827;-57
2023/08/17 14:34:35;;;;;;;9.43;3.95;;;;;;;;;;4403095;32;68024;-58
2023/08/17 14:37:27;;;;;;;9.57;5.50;;;;;;;;;;4415066;32;59210;-59
2023/08/17 14:40:17;;;;;;;9.68;5.70;;;;;;;;;;4400030;32;71012;-58
2023/08/17 14:43:03;;;;;;;9.07;5.18;;;;;;;;;;4414717;32;69077;-58
2023/08/17 14:45:49;;;;;;;;;;;;;;;;;;4403150;32;67039;-58
2023/08/17 14:48:43;;;;;;;;;;;;;;;;;;4403170;32;59726;-57
2023/08/17 14:51:34;;;;;;;6.05;4.57;;;;;;;;;;4414827;32;70078;-58
2023/08/17 14:54:25;;;;;;;10.05;4.57;;;;;;;;;;4382213;32;69298;-58
2023/08/17 14:57:14;;;;;;;10.30;5.15;;;;;;;;;;4402770;32;67183;-58
2023/08/17 15:00:03;;;;;;;7.43;4.60;;;;;;;;;;4399660;32;70805;-58
2023/08/17 15:02:50;;;;;;;9.43;5.05;;;;;;;;;;4399896;32;63600;-58
2023/08/17 15:05:39;;;;;;;8.48;5.20;;;;;;;;;;4414783;32;68124;-58
2023/08/17 15:08:25;;;;;;;;;;;;;;;;;;4392277;32;67709;-57
2023/08/17 15:11:12;;;;;;;7.23;5.27;;;;;;;;;;4402696;32;70873;-58
2023/08/17 15:14:03;;;;;;;8.50;5.05;;;;;;;;;;4414549;32;66023;-58
2023/08/17 15:16:49;;;;;;;9.13;4.68;;;;;;;;;;4414661;32;67071;-59
2023/08/17 15:19:43;;;;;;;9.40;5.12;;;;;;;;;;4403478;32;59732;-57
2023/08/17 15:22:40;;;;;;;14.60;6.18;;;;;;;;;;4402781;32;69914;-58
2023/08/17 15:25:26;;;;;;;9.93;6.03;;;;;;;;;;4414327;32;69363;-58
2023/08/17 15:28:15;;;;;;;11.63;5.68;;;;;;;;;;4414463;32;67173;-59
2023/08/17 15:31:09;;;;;;;10.77;6.47;;;;;;;;;;4402974;32;71695;-59
2023/08/17 15:33:57;;;;;;;13.32;6.72;;;;;;;;;;4402006;32;70566;-59
2023/08/17 15:36:46;;;;;;;12.65;8.05;;;;;;;;;;4402025;32;67941;-59
2023/08/17 15:39:36;;;;;;;15.57;8.63;;;;;;;;;;4402057;32;66814;-59
2023/08/17 15:42:22;;;;;;;16.48;9.90;;;;;;;;;;4402020;32;71740;-58
2023/08/17 15:45:09;;;;;;;17.95;10.10;;;;;;;;;;4402237;32;65140;-59
2023/08/17 15:47:56;;;;;;;15.45;9.57;;;;;;;;;;4373384;32;67013;-58
2023/08/17 15:50:45;;;;;;;17.27;8.63;;;;;;;;;;4399060;32;59029;-58
2023/08/17 15:53:31;;;;;;;14.10;8.57;;;;;;;;;;4386520;32;69737;-58
2023/08/17 15:56:19;;;;;;;14.45;9.32;;;;;;;;;;4383301;32;67209;-58
2023/08/17 15:59:08;;;;;;;16.60;10.35;;;;;;;;;;4386969;32;68134;-59
2023/08/17 16:01:58;;;;;;;16.05;9.23;;;;;;;;;;4398922;32;60409;-59
2023/08/17 16:04:46;;;;;;;21.37;11.48;;;;;;;;;;4398495;32;70526;-57
2023/08/17 16:07:32;;;;;;;18.98;10.93;;;;;;;;;;4386337;32;68392;-58
2023/08/17 16:10:19;;;;;;;19.52;10.80;;;;;;;;;;4398304;32;66479;-57
2023/08/17 16:13:05;;;;;;;18.17;10.63;;;;;;;;;;4398020;32;72169;-58
2023/08/17 16:15:52;;;;;;;15.48;9.23;;;;;;;;;;4386055;32;65053;-58
2023/08/17 16:18:39;;;;;;;15.90;9.18;;;;;;;;;;4373382;32;65732;-58
2023/08/17 16:21:50;;;;;;;15.52;9.48;;;;;;;;;;3847359;37;44019;-58
2023/08/17 16:24:43;;;;;;;18.15;11.10;;;;;;;;;;4411167;32;59238;-58
2023/08/17 16:27:34;;;;;;;18.83;11.20;;;;;;;;;;4410844;32;70525;-57
2023/08/17 16:30:24;;;;;;;19.37;11.65;;;;;;;;;;4408976;32;67170;-58
2023/08/17 16:33:14;;;;;;;22.05;12.68;;;;;;;;;;4408969;32;65659;-58
2023/08/17 16:36:00;;;;;;;19.08;11.30;;;;;;;;;;4410530;32;71754;-58
2023/08/17 16:38:50;;;;;;;16.08;9.57;;;;;;;;;;4410964;32;64944;-59
2023/08/17 16:41:37;;;;;;;17.77;8.98;;;;;;;;;;4398708;32;66376;-58
2023/08/17 16:44:26;;;;;;;11.32;7.32;;;;;;;;;;4410828;32;60371;-58
2023/08/17 16:47:15;;;;;;;11.50;7.70;;;;;;;;;;4409203;32;70919;-58
2023/08/17 16:50:01;;;;;;;14.40;8.07;;;;;;;;;;4410692;32;65810;-58
2023/08/17 16:52:51;;;;;;;11.77;7.70;;;;;;;;;;4409085;32;67347;-59
2023/08/17 16:55:40;;;;;;;11.23;7.35;;;;;;;;;;4410872;32;60093;-59
2023/08/17 16:58:27;;;;;;;11.38;7.35;;;;;;;;;;4409209;32;70455;-57
2023/08/17 17:01:15;;;;;;;9.20;6.82;;;;;;;;;;4410238;32;69513;-58